This is the latest recevied weather packets stored in our database for station/object HS5NMF. If no packets are shown the sender has not sent any weather packets the latest 10 day(s).
| Time | Temp. | Humidity | Pressure | Rain* | Wind** | Luminosity | Snow |
|---|---|---|---|---|---|---|---|
| 1777837192 | 28.89° C | 84% | 977 hPa | - | - | 0 W/m² | - |
| 1777836869 | 29.44° C | 80% | 977 hPa | - | - | 0 W/m² | - |
| 1777836546 | 29.44° C | 80% | 977 hPa | - | - | 0 W/m² | - |
| 1777836224 | 29.44° C | 78% | 977 hPa | - | - | 0 W/m² | - |
| 1777835901 | 30° C | 76% | 977 hPa | - | - | 0 W/m² | - |
| 1777835578 | 30.56° C | 75% | 977 hPa | - | - | 0 W/m² | - |
| 1777835256 | 29.44° C | 79% | 977 hPa | - | - | 0 W/m² | - |
| 1777834933 | 30° C | 77% | 977 hPa | - | - | 0 W/m² | - |
| 1777834610 | 29.44° C | 79% | 977 hPa | - | - | 0 W/m² | - |
| 1777834290 | 30° C | 76% | 977 hPa | - | - | 0 W/m² | - |
| 1777833964 | 30.56° C | 73% | 977 hPa | - | - | 0 W/m² | - |
| 1777833643 | 30.56° C | 74% | 977 hPa | - | - | 0 W/m² | - |
| 1777833319 | 30° C | 76% | 978 hPa | - | - | 0 W/m² | - |
| 1777832996 | 30.56° C | 73% | 977 hPa | - | - | 0 W/m² | - |
| 1777832674 | 30.56° C | 75% | 978 hPa | - | - | 0 W/m² | - |
| 1777832349 | 29.44° C | 78% | 978 hPa | - | - | 0 W/m² | - |
| 1777832027 | 30.56° C | 75% | 978 hPa | - | - | 0 W/m² | - |
| 1777831706 | 30° C | 76% | 978 hPa | - | - | 0 W/m² | - |
| 1777831382 | 30° C | 78% | 978 hPa | - | - | 0 W/m² | - |
| 1777831059 | 29.44° C | 80% | 978 hPa | - | - | 0 W/m² | - |
| 1777830736 | 30° C | 77% | 978 hPa | - | - | 0 W/m² | - |
| 1777830414 | 29.44° C | 77% | 978 hPa | - | - | 0 W/m² | - |
| 1777830091 | 30° C | 77% | 978 hPa | - | - | 0 W/m² | - |
| 1777829767 | 30° C | 78% | 978 hPa | - | - | 0 W/m² | - |
| 1777829444 | 30° C | 78% | 978 hPa | - | - | 0 W/m² | - |
* Rain since midnight (hover to see other rain measurements)
** Current wind speed in m/s (hover to see current wind gust speed)